Time;durP1;ratioP1;P1;durP2;ratioP2;P2;SDS_P1;SDS_P2;PMS_P1;PMS_P2;Temp;Humidity;BMP_temperature;BMP_pressure;BME280_temperature;BME280_humidity;BME280_pressure;Samples;Min_cycle;Max_cycle;Signal;HPM_P1;HPM_P2
2022/12/29 00:00:47;;;;;;;0.52;0.52;;;;;;;;;;10505960;28;20336;-86
2022/12/29 00:05:54;;;;;;;0.40;0.40;;;;;;;;;;10512507;28;20243;-83
2022/12/29 00:10:55;;;;;;;1.35;0.47;;;;;;;;;;10505880;28;20364;-85
2022/12/29 00:15:56;;;;;;;2.10;0.57;;;;;;;;;;10518646;28;20228;-86
2022/12/29 00:36:57;;;;;;;0.65;0.65;;;;;;;;;;10512204;28;20215;-84
2022/12/29 00:47:22;;;;;;;0.50;0.50;;;;;;;;;;10499084;28;20263;-84
2022/12/29 00:52:23;;;;;;;0.45;0.38;;;;;;;;;;10513536;28;20213;-84
2022/12/29 00:57:25;;;;;;;1.17;0.80;;;;;;;;;;10507136;28;20202;-84
2022/12/29 01:02:26;;;;;;;0.50;0.50;;;;;;;;;;10497679;28;20274;-87
2022/12/29 01:07:27;;;;;;;0.45;0.45;;;;;;;;;;10500315;28;20206;-87
2022/12/29 01:12:40;;;;;;;0.60;0.60;;;;;;;;;;10513371;28;20236;-86
2022/12/29 01:17:43;;;;;;;0.57;0.57;;;;;;;;;;10506439;28;20225;-87
2022/12/29 01:22:44;;;;;;;0.60;0.60;;;;;;;;;;10506584;28;20305;-86
2022/12/29 01:27:46;;;;;;;0.52;0.52;;;;;;;;;;10505751;28;20205;-89
2022/12/29 01:32:47;;;;;;;1.95;0.60;;;;;;;;;;10493695;28;20249;-87
2022/12/29 01:37:48;;;;;;;2.60;0.55;;;;;;;;;;10490523;28;20631;-87
2022/12/29 01:42:49;;;;;;;1.45;0.80;;;;;;;;;;10495138;28;20256;-87
2022/12/29 01:47:56;;;;;;;0.55;0.40;;;;;;;;;;10513970;28;20214;-86
2022/12/29 01:52:59;;;;;;;0.50;0.50;;;;;;;;;;10511508;28;20648;-87
2022/12/29 01:58:04;;;;;;;0.40;0.40;;;;;;;;;;10490594;28;20222;-85
2022/12/29 02:03:06;;;;;;;0.60;0.60;;;;;;;;;;10496073;28;21041;-85
2022/12/29 02:08:09;;;;;;;0.50;0.45;;;;;;;;;;10500874;28;20627;-86
2022/12/29 02:13:10;;;;;;;0.50;0.50;;;;;;;;;;10516287;28;20213;-84
2022/12/29 02:18:19;;;;;;;0.60;0.60;;;;;;;;;;10488920;28;20225;-88
2022/12/29 02:23:20;;;;;;;0.77;0.73;;;;;;;;;;10511446;28;20243;-88
2022/12/29 02:28:35;;;;;;;0.50;0.50;;;;;;;;;;10476741;28;20201;-86
2022/12/29 02:33:55;;;;;;;0.47;0.47;;;;;;;;;;10513597;28;20222;-86
2022/12/29 02:39:02;;;;;;;0.50;0.50;;;;;;;;;;10500266;28;20210;-88
2022/12/29 02:44:11;;;;;;;0.65;0.52;;;;;;;;;;10504560;28;20229;-88
2022/12/29 02:49:13;;;;;;;0.50;0.50;;;;;;;;;;10520275;28;20240;-86
2022/12/29 02:59:37;;;;;;;0.57;0.40;;;;;;;;;;10502351;28;20213;-86
2022/12/29 03:04:49;;;;;;;0.60;0.60;;;;;;;;;;10521792;28;20278;-88
2022/12/29 03:09:54;;;;;;;1.75;0.77;;;;;;;;;;10515190;28;20313;-86
2022/12/29 03:20:24;;;;;;;0.93;0.73;;;;;;;;;;10501871;28;20217;-84
2022/12/29 03:25:33;;;;;;;0.57;0.57;;;;;;;;;;10524336;28;20225;-85
2022/12/29 03:30:38;;;;;;;0.88;0.88;;;;;;;;;;10502170;28;20206;-86
2022/12/29 03:35:41;;;;;;;0.50;0.50;;;;;;;;;;10512538;28;20217;-87
2022/12/29 03:40:48;;;;;;;0.50;0.50;;;;;;;;;;10501632;28;20252;-88
2022/12/29 03:45:49;;;;;;;1.20;0.50;;;;;;;;;;10508897;28;20233;-85
2022/12/29 03:50:50;;;;;;;1.48;0.70;;;;;;;;;;10490487;28;20221;-88
2022/12/29 03:55:52;;;;;;;2.28;0.88;;;;;;;;;;10506089;28;20558;-88
2022/12/29 04:00:53;;;;;;;1.55;0.60;;;;;;;;;;10509307;28;20197;-88
2022/12/29 04:05:54;;;;;;;0.52;0.52;;;;;;;;;;10507426;28;20210;-87
2022/12/29 04:10:56;;;;;;;0.45;0.45;;;;;;;;;;10513378;28;20621;-89
2022/12/29 04:15:57;;;;;;;0.55;0.55;;;;;;;;;;10487541;28;20252;-85
2022/12/29 04:21:03;;;;;;;2.53;0.93;;;;;;;;;;10505649;28;20237;-90
2022/12/29 04:26:07;;;;;;;0.40;0.40;;;;;;;;;;10495509;28;20225;-88
2022/12/29 04:31:11;;;;;;;0.55;0.55;;;;;;;;;;10485652;28;20230;-88
2022/12/29 04:36:15;;;;;;;1.70;0.60;;;;;;;;;;10486087;28;20723;-91
2022/12/29 04:41:17;;;;;;;0.60;0.60;;;;;;;;;;10504023;28;20256;-90
2022/12/29 04:46:19;;;;;;;0.65;0.65;;;;;;;;;;10494159;28;20593;-87
2022/12/29 04:51:35;;;;;;;0.60;0.60;;;;;;;;;;10498973;28;20262;-86
2022/12/29 04:56:36;;;;;;;0.85;0.50;;;;;;;;;;10487231;28;20210;-90
2022/12/29 05:01:40;;;;;;;0.73;0.73;;;;;;;;;;10516819;28;20259;-86
2022/12/29 05:06:41;;;;;;;0.50;0.50;;;;;;;;;;10498627;28;20202;-86
2022/12/29 05:11:43;;;;;;;0.82;0.50;;;;;;;;;;10493663;28;20205;-87
2022/12/29 05:16:45;;;;;;;0.63;0.63;;;;;;;;;;10509303;28;20229;-88
2022/12/29 05:21:49;;;;;;;0.75;0.75;;;;;;;;;;10487734;28;20231;-88
2022/12/29 05:26:50;;;;;;;0.70;0.70;;;;;;;;;;10501755;28;20205;-91
2022/12/29 05:32:10;;;;;;;0.57;0.57;;;;;;;;;;10502975;28;20240;-93
2022/12/29 05:37:11;;;;;;;0.73;0.70;;;;;;;;;;10489700;28;20497;-88
2022/12/29 05:42:15;;;;;;;3.08;0.50;;;;;;;;;;10495609;28;20217;-92
2022/12/29 05:47:30;;;;;;;0.50;0.50;;;;;;;;;;10499664;28;20216;-88
2022/12/29 05:52:58;;;;;;;1.38;0.70;;;;;;;;;;10497961;28;20217;-90
2022/12/29 05:57:59;;;;;;;0.50;0.50;;;;;;;;;;10503269;28;20217;-89
2022/12/29 06:03:00;;;;;;;0.75;0.75;;;;;;;;;;10503984;28;20209;-90
2022/12/29 06:08:01;;;;;;;0.68;0.68;;;;;;;;;;10505500;28;20225;-87
2022/12/29 06:13:05;;;;;;;0.57;0.57;;;;;;;;;;10504528;28;20293;-89
2022/12/29 06:18:06;;;;;;;0.40;0.40;;;;;;;;;;10486778;28;20287;-90
2022/12/29 06:23:08;;;;;;;0.40;0.40;;;;;;;;;;10515651;28;20237;-88
2022/12/29 06:28:12;;;;;;;0.73;0.73;;;;;;;;;;10530979;28;20212;-89
2022/12/29 06:33:13;;;;;;;0.63;0.63;;;;;;;;;;10501454;28;20630;-88
2022/12/29 06:38:15;;;;;;;1.08;0.40;;;;;;;;;;10524880;28;20209;-87
2022/12/29 06:43:16;;;;;;;0.70;0.70;;;;;;;;;;10514415;28;20239;-89
2022/12/29 06:48:26;;;;;;;1.08;0.60;;;;;;;;;;10515425;28;20577;-88
2022/12/29 06:53:27;;;;;;;0.80;0.55;;;;;;;;;;10520825;28;20214;-88
2022/12/29 06:58:28;;;;;;;0.52;0.52;;;;;;;;;;10516285;28;20210;-90
2022/12/29 07:03:29;;;;;;;0.50;0.50;;;;;;;;;;10515799;28;20305;-93
2022/12/29 07:08:30;;;;;;;2.10;0.60;;;;;;;;;;10512891;28;20260;-91
2022/12/29 07:13:31;;;;;;;0.50;0.50;;;;;;;;;;10521040;28;20234;-89
2022/12/29 07:18:32;;;;;;;0.68;0.38;;;;;;;;;;10517833;28;20212;-89
2022/12/29 07:23:33;;;;;;;1.02;0.52;;;;;;;;;;10528540;28;20219;-89
2022/12/29 07:28:34;;;;;;;0.50;0.50;;;;;;;;;;10527113;28;20215;-89
2022/12/29 07:33:35;;;;;;;0.40;0.40;;;;;;;;;;10504349;28;20599;-90
2022/12/29 07:38:37;;;;;;;1.30;0.80;;;;;;;;;;10504573;28;20214;-85
2022/12/29 07:43:38;;;;;;;0.95;0.63;;;;;;;;;;10524483;28;20317;-89
2022/12/29 07:48:55;;;;;;;0.30;0.30;;;;;;;;;;10517711;28;20217;-90
2022/12/29 07:53:56;;;;;;;0.65;0.40;;;;;;;;;;10527698;28;20213;-91
2022/12/29 07:58:57;;;;;;;0.20;0.20;;;;;;;;;;10519709;28;20228;-89
2022/12/29 08:03:58;;;;;;;0.30;0.30;;;;;;;;;;10506237;28;20314;-89
2022/12/29 08:09:00;;;;;;;0.28;0.28;;;;;;;;;;10492589;28;20213;-92
2022/12/29 08:14:01;;;;;;;0.40;0.40;;;;;;;;;;10527138;28;20210;-90
2022/12/29 08:19:04;;;;;;;0.22;0.22;;;;;;;;;;10516185;28;20768;-92
2022/12/29 08:24:06;;;;;;;0.20;0.20;;;;;;;;;;10516501;28;20222;-89
2022/12/29 08:29:07;;;;;;;0.20;0.20;;;;;;;;;;10505169;28;20213;-90
2022/12/29 08:34:08;;;;;;;0.88;0.20;;;;;;;;;;10513522;28;20268;-91
2022/12/29 08:39:09;;;;;;;0.20;0.20;;;;;;;;;;10516149;28;20205;-93
2022/12/29 08:44:10;;;;;;;0.17;0.17;;;;;;;;;;10510285;28;20248;-92
2022/12/29 08:49:11;;;;;;;0.20;0.20;;;;;;;;;;10516364;28;20282;-91
2022/12/29 08:54:12;;;;;;;1.75;0.20;;;;;;;;;;10510373;28;20210;-93
2022/12/29 08:59:14;;;;;;;0.20;0.20;;;;;;;;;;10491161;28;20216;-86
2022/12/29 09:04:16;;;;;;;0.25;0.20;;;;;;;;;;10508479;28;20214;-91
2022/12/29 09:09:18;;;;;;;0.20;0.20;;;;;;;;;;10508939;28;20591;-86
2022/12/29 09:14:19;;;;;;;0.30;0.30;;;;;;;;;;10489620;28;20727;-88
2022/12/29 09:19:20;;;;;;;0.20;0.20;;;;;;;;;;10506607;28;20232;-88
2022/12/29 09:24:21;;;;;;;0.15;0.15;;;;;;;;;;10491086;28;20232;-85
2022/12/29 09:29:22;;;;;;;0.20;0.20;;;;;;;;;;10486573;28;20205;-89
2022/12/29 09:34:23;;;;;;;0.73;0.20;;;;;;;;;;10500974;28;20312;-85
2022/12/29 09:39:24;;;;;;;0.30;0.30;;;;;;;;;;10481839;28;20217;-87
2022/12/29 09:44:30;;;;;;;0.20;0.20;;;;;;;;;;10483760;28;20711;-89
2022/12/29 09:49:50;;;;;;;0.35;0.22;;;;;;;;;;10489421;28;20744;-84
2022/12/29 09:54:57;;;;;;;0.20;0.20;;;;;;;;;;10501166;28;20213;-85
2022/12/29 10:00:03;;;;;;;0.40;0.40;;;;;;;;;;10502536;28;21700;-84
2022/12/29 10:05:16;;;;;;;0.22;0.22;;;;;;;;;;10504263;28;20242;-83
2022/12/29 10:10:23;;;;;;;0.10;0.10;;;;;;;;;;10492245;28;20189;-87
2022/12/29 10:15:24;;;;;;;0.10;0.10;;;;;;;;;;10503628;28;20214;-89
2022/12/29 10:20:29;;;;;;;0.10;0.10;;;;;;;;;;10489984;28;20221;-86
2022/12/29 10:25:33;;;;;;;0.20;0.20;;;;;;;;;;10504181;28;20217;-91
2022/12/29 10:30:35;;;;;;;0.10;0.10;;;;;;;;;;10505836;28;20761;-81
2022/12/29 10:35:40;;;;;;;0.80;0.10;;;;;;;;;;10506315;28;20229;-82
2022/12/29 10:40:59;;;;;;;0.80;0.10;;;;;;;;;;10482850;28;20206;-86
2022/12/29 10:46:10;;;;;;;0.03;0.03;;;;;;;;;;10497473;28;20638;-85
2022/12/29 10:51:16;;;;;;;0.03;0.03;;;;;;;;;;10497605;28;20249;-88
2022/12/29 10:56:32;;;;;;;0.10;0.10;;;;;;;;;;10493854;28;20217;-87
2022/12/29 11:01:37;;;;;;;0.28;0.10;;;;;;;;;;10467906;28;20223;-87
2022/12/29 11:06:39;;;;;;;2.30;1.23;;;;;;;;;;10490446;28;20712;-84
2022/12/29 11:11:40;;;;;;;0.93;0.73;;;;;;;;;;10504439;28;20249;-85
2022/12/29 11:16:43;;;;;;;0.10;0.10;;;;;;;;;;10494826;28;20789;-84
2022/12/29 11:21:44;;;;;;;0.10;0.10;;;;;;;;;;10510662;28;20209;-86
2022/12/29 11:26:46;;;;;;;0.10;0.10;;;;;;;;;;10512739;28;20233;-84
2022/12/29 11:31:54;;;;;;;0.10;0.10;;;;;;;;;;10510267;28;20221;-85
2022/12/29 11:37:00;;;;;;;0.00;0.00;;;;;;;;;;10504077;28;20320;-86
2022/12/29 11:42:04;;;;;;;0.10;0.10;;;;;;;;;;10490356;28;20214;-86
2022/12/29 11:47:05;;;;;;;0.15;0.13;;;;;;;;;;10509952;28;20748;-87
2022/12/29 11:52:07;;;;;;;0.13;0.13;;;;;;;;;;10482978;28;20642;-88
2022/12/29 11:57:16;;;;;;;0.20;0.20;;;;;;;;;;10494806;28;20256;-84
2022/12/29 12:02:41;;;;;;;0.10;0.10;;;;;;;;;;10485892;28;20688;-86
2022/12/29 12:07:46;;;;;;;0.20;0.20;;;;;;;;;;10496417;28;20210;-85
2022/12/29 12:12:52;;;;;;;0.20;0.20;;;;;;;;;;10483186;28;20214;-89
2022/12/29 12:18:17;;;;;;;0.10;0.10;;;;;;;;;;10479369;28;20278;-86
2022/12/29 12:23:31;;;;;;;0.20;0.20;;;;;;;;;;10498711;28;20691;-86
2022/12/29 12:28:57;;;;;;;0.10;0.10;;;;;;;;;;10486025;28;20271;-86
2022/12/29 12:34:01;;;;;;;0.10;0.10;;;;;;;;;;10497029;28;20232;-86
2022/12/29 12:39:11;;;;;;;0.95;0.20;;;;;;;;;;10479104;28;20213;-88
2022/12/29 12:44:26;;;;;;;0.20;0.20;;;;;;;;;;10477118;28;20705;-89
2022/12/29 12:50:02;;;;;;;0.55;0.28;;;;;;;;;;10505612;28;20297;-90
2022/12/29 12:55:08;;;;;;;0.20;0.20;;;;;;;;;;10439354;28;20271;-88
2022/12/29 13:00:30;;;;;;;;;;;;;;;;;;;;;
2022/12/29 13:05:41;;;;;;;0.13;0.13;;;;;;;;;;10500647;28;20232;-89
2022/12/29 13:10:56;;;;;;;0.20;0.20;;;;;;;;;;10468777;28;20220;-86
2022/12/29 13:16:17;;;;;;;0.85;0.15;;;;;;;;;;10493271;28;20244;-83
2022/12/29 13:21:33;;;;;;;0.20;0.20;;;;;;;;;;10468332;28;20312;-83
2022/12/29 13:26:40;;;;;;;0.20;0.20;;;;;;;;;;10503319;28;20189;-80
2022/12/29 13:31:54;;;;;;;1.27;0.10;;;;;;;;;;10504111;28;20217;-84
2022/12/29 13:36:59;;;;;;;1.27;0.20;;;;;;;;;;10505202;28;20222;-85
2022/12/29 13:42:01;;;;;;;3.55;0.13;;;;;;;;;;10502270;28;20229;-81
2022/12/29 13:47:06;;;;;;;1.27;0.25;;;;;;;;;;10485263;28;20320;-75
2022/12/29 13:52:13;;;;;;;1.65;0.40;;;;;;;;;;10494084;28;20608;-73
2022/12/29 13:57:26;;;;;;;0.20;0.20;;;;;;;;;;10491368;28;20587;-73
2022/12/29 14:02:36;;;;;;;0.30;0.20;;;;;;;;;;10501646;28;20213;-74
2022/12/29 14:07:38;;;;;;;1.13;0.40;;;;;;;;;;10498064;28;20198;-84
2022/12/29 14:12:43;;;;;;;1.65;0.20;;;;;;;;;;10494351;28;20213;-84
2022/12/29 14:17:44;;;;;;;1.83;0.28;;;;;;;;;;10486470;28;20255;-86
2022/12/29 14:23:02;;;;;;;2.03;0.17;;;;;;;;;;10504374;28;20343;-86
2022/12/29 14:28:15;;;;;;;1.50;0.20;;;;;;;;;;10488533;28;20213;-87
2022/12/29 14:33:17;;;;;;;0.20;0.20;;;;;;;;;;10488342;28;20645;-86
2022/12/29 14:38:22;;;;;;;0.32;0.10;;;;;;;;;;10500043;28;20210;-84
2022/12/29 14:43:25;;;;;;;0.88;0.20;;;;;;;;;;10511995;28;20235;-82
2022/12/29 14:48:35;;;;;;;1.35;0.15;;;;;;;;;;10509150;28;20287;-82
2022/12/29 14:53:43;;;;;;;1.38;0.20;;;;;;;;;;10500942;28;20218;-92
2022/12/29 14:58:48;;;;;;;2.78;0.20;;;;;;;;;;10509334;28;20213;-88
2022/12/29 15:03:50;;;;;;;0.60;0.50;;;;;;;;;;10501422;28;20588;-84
2022/12/29 15:09:02;;;;;;;1.40;0.80;;;;;;;;;;10500507;28;20712;-76
2022/12/29 15:14:03;;;;;;;1.60;1.50;;;;;;;;;;10504448;28;20209;-82
2022/12/29 15:19:05;;;;;;;1.63;0.95;;;;;;;;;;10520803;28;20689;-82
2022/12/29 15:24:06;;;;;;;1.88;1.10;;;;;;;;;;10518771;28;20210;-85
2022/12/29 15:29:26;;;;;;;1.30;0.50;;;;;;;;;;10508626;28;20213;-82
2022/12/29 15:34:30;;;;;;;5.55;3.15;;;;;;;;;;10500746;28;20245;-82
2022/12/29 15:39:31;;;;;;;1.10;0.30;;;;;;;;;;10491424;28;20213;-81
2022/12/29 15:44:40;;;;;;;1.27;0.50;;;;;;;;;;10512338;28;20229;-79
2022/12/29 15:49:42;;;;;;;2.72;0.60;;;;;;;;;;10511063;28;20214;-78
2022/12/29 15:54:43;;;;;;;0.65;0.30;;;;;;;;;;10516934;28;21820;-80
2022/12/29 15:59:48;;;;;;;1.38;0.47;;;;;;;;;;10511573;28;20468;-80
2022/12/29 16:04:49;;;;;;;0.55;0.25;;;;;;;;;;10511435;28;20855;-78
2022/12/29 16:09:54;;;;;;;1.10;0.30;;;;;;;;;;10506611;28;20206;-78
2022/12/29 16:14:57;;;;;;;1.05;0.40;;;;;;;;;;10503544;28;20684;-78
2022/12/29 16:20:00;;;;;;;0.47;0.47;;;;;;;;;;10498805;28;20214;-81
2022/12/29 16:25:04;;;;;;;0.45;0.40;;;;;;;;;;10481724;28;20538;-77
2022/12/29 16:30:07;;;;;;;0.50;0.50;;;;;;;;;;10523772;28;20213;-78
2022/12/29 16:35:14;;;;;;;5.45;4.18;;;;;;;;;;10497514;28;20264;-80
2022/12/29 16:40:22;;;;;;;0.52;0.52;;;;;;;;;;10501595;28;20625;-75
2022/12/29 16:45:23;;;;;;;0.40;0.40;;;;;;;;;;10482318;28;20225;-83
2022/12/29 16:50:25;;;;;;;1.30;0.70;;;;;;;;;;10501066;28;20247;-82
2022/12/29 16:55:26;;;;;;;1.00;0.50;;;;;;;;;;10489870;28;20213;-82
2022/12/29 17:00:29;;;;;;;3.00;0.30;;;;;;;;;;10489617;28;20252;-78
2022/12/29 17:05:30;;;;;;;0.63;0.60;;;;;;;;;;10495306;28;20697;-82
2022/12/29 17:15:53;;;;;;;1.00;0.95;;;;;;;;;;10498533;28;20210;-79
2022/12/29 17:20:54;;;;;;;1.67;0.70;;;;;;;;;;10495615;28;20311;-85
2022/12/29 17:25:55;;;;;;;2.30;0.52;;;;;;;;;;10495430;28;20209;-86
2022/12/29 17:31:01;;;;;;;2.17;0.70;;;;;;;;;;10483958;28;20665;-81
2022/12/29 17:36:02;;;;;;;0.80;0.80;;;;;;;;;;10495641;28;21027;-84
2022/12/29 17:41:03;;;;;;;2.67;0.70;;;;;;;;;;10504383;28;20308;-91
2022/12/29 17:46:05;;;;;;;3.22;0.65;;;;;;;;;;10501409;28;20720;-85
2022/12/29 17:51:08;;;;;;;18.52;9.40;;;;;;;;;;10500341;28;20221;-85
2022/12/29 17:56:10;;;;;;;1.65;0.70;;;;;;;;;;10494401;28;20209;-84
2022/12/29 18:01:20;;;;;;;2.78;2.13;;;;;;;;;;10498125;28;20236;-88
2022/12/29 18:06:21;;;;;;;4.45;3.20;;;;;;;;;;10503228;28;20211;-84
2022/12/29 18:11:26;;;;;;;8.35;5.63;;;;;;;;;;10496813;28;20567;-88
2022/12/29 18:16:27;;;;;;;5.57;4.05;;;;;;;;;;10501092;28;20210;-78
2022/12/29 18:21:28;;;;;;;1.85;1.15;;;;;;;;;;10505393;28;20305;-75
2022/12/29 18:26:34;;;;;;;1.05;0.65;;;;;;;;;;10504365;28;20767;-73
2022/12/29 18:31:35;;;;;;;1.60;1.50;;;;;;;;;;10503146;28;20262;-73
2022/12/29 18:36:36;;;;;;;1.10;0.50;;;;;;;;;;10499511;28;20213;-83
2022/12/29 18:41:37;;;;;;;0.90;0.40;;;;;;;;;;10484205;28;21118;-80
2022/12/29 18:46:39;;;;;;;0.30;0.30;;;;;;;;;;10484434;28;20229;-76
2022/12/29 18:51:40;;;;;;;0.40;0.40;;;;;;;;;;10501246;28;20244;-90
2022/12/29 18:56:41;;;;;;;0.77;0.38;;;;;;;;;;10485601;28;20213;-77
2022/12/29 19:01:42;;;;;;;0.25;0.25;;;;;;;;;;10484109;28;20708;-76
2022/12/29 19:06:43;;;;;;;0.20;0.20;;;;;;;;;;10500026;28;20696;-81
2022/12/29 19:11:44;;;;;;;2.17;0.40;;;;;;;;;;10486348;28;20514;-80
2022/12/29 19:16:45;;;;;;;1.20;0.50;;;;;;;;;;10482158;28;20213;-82
2022/12/29 19:21:47;;;;;;;1.33;0.40;;;;;;;;;;10485480;28;20217;-87
2022/12/29 19:26:48;;;;;;;2.70;0.40;;;;;;;;;;10501739;28;20201;-74
2022/12/29 19:31:49;;;;;;;2.80;0.60;;;;;;;;;;10500376;28;20213;-80
2022/12/29 19:36:50;;;;;;;1.45;1.10;;;;;;;;;;10439819;28;1284787;-76
2022/12/29 19:41:51;;;;;;;0.50;0.50;;;;;;;;;;10485745;28;20221;-75
2022/12/29 19:46:52;;;;;;;0.30;0.30;;;;;;;;;;10504418;28;20704;-76
2022/12/29 19:51:53;;;;;;;1.55;0.45;;;;;;;;;;10494389;28;20224;-78
2022/12/29 19:56:54;;;;;;;0.85;0.60;;;;;;;;;;10516555;28;20232;-86
2022/12/29 20:01:56;;;;;;;0.40;0.40;;;;;;;;;;10505259;28;20245;-87
2022/12/29 20:06:57;;;;;;;0.98;0.73;;;;;;;;;;10500114;28;20206;-76
2022/12/29 20:11:58;;;;;;;1.02;0.25;;;;;;;;;;10483413;28;20704;-76
2022/12/29 20:16:59;;;;;;;0.80;0.40;;;;;;;;;;10503629;28;20227;-80
2022/12/29 20:22:01;;;;;;;2.05;0.50;;;;;;;;;;10502388;28;20229;-92
2022/12/29 20:27:02;;;;;;;2.25;0.43;;;;;;;;;;10501523;28;20635;-84
2022/12/29 20:32:04;;;;;;;8.10;2.65;;;;;;;;;;10507230;28;20680;-90
2022/12/29 20:37:05;;;;;;;1.13;0.38;;;;;;;;;;10502391;28;20234;-90
2022/12/29 20:42:07;;;;;;;2.45;0.60;;;;;;;;;;10503283;28;20298;-87
2022/12/29 20:47:08;;;;;;;0.80;0.50;;;;;;;;;;10501577;28;20202;-81
2022/12/29 20:52:10;;;;;;;0.55;0.55;;;;;;;;;;10498749;28;20227;-74
2022/12/29 20:57:11;;;;;;;0.88;0.30;;;;;;;;;;10498683;28;20366;-89
2022/12/29 21:02:21;;;;;;;0.47;0.40;;;;;;;;;;10500107;28;20252;-75
2022/12/29 21:07:22;;;;;;;0.20;0.20;;;;;;;;;;10481089;28;20315;-80
2022/12/29 21:12:24;;;;;;;1.75;0.35;;;;;;;;;;10497895;28;20220;-83
2022/12/29 21:17:25;;;;;;;0.30;0.30;;;;;;;;;;10507383;28;20204;-92
2022/12/29 21:22:26;;;;;;;2.25;0.50;;;;;;;;;;10535672;28;20249;-94
2022/12/29 21:27:27;;;;;;;1.55;0.38;;;;;;;;;;10548976;28;20213;-94
2022/12/29 21:32:28;;;;;;;0.80;0.50;;;;;;;;;;10550469;28;20232;-91
2022/12/29 21:37:29;;;;;;;1.40;0.38;;;;;;;;;;10548269;28;20213;-91
2022/12/29 21:42:30;;;;;;;0.30;0.30;;;;;;;;;;10533353;28;20243;-94
2022/12/29 21:52:52;;;;;;;3.78;0.30;;;;;;;;;;10535838;28;20213;-92
2022/12/29 22:13:55;;;;;;;1.20;0.30;;;;;;;;;;10534468;28;20239;-93
2022/12/29 22:18:56;;;;;;;0.90;0.40;;;;;;;;;;10538034;28;20545;-91
2022/12/29 22:23:57;;;;;;;2.20;0.43;;;;;;;;;;10547994;28;20225;-93
2022/12/29 22:28:58;;;;;;;1.20;0.35;;;;;;;;;;10548222;28;20206;-92
2022/12/29 22:34:00;;;;;;;1.10;0.50;;;;;;;;;;10519767;28;20254;-91
2022/12/29 22:39:01;;;;;;;0.40;0.40;;;;;;;;;;10516994;28;20206;-94
2022/12/29 22:44:03;;;;;;;3.47;0.30;;;;;;;;;;10534523;28;20228;-93
2022/12/29 22:49:04;;;;;;;1.30;0.32;;;;;;;;;;10532950;28;20239;-90
2022/12/29 22:54:05;;;;;;;4.18;0.20;;;;;;;;;;10524802;28;20217;-91
2022/12/29 22:59:07;;;;;;;0.20;0.20;;;;;;;;;;10526456;28;20213;-93
2022/12/29 23:04:08;;;;;;;0.85;0.50;;;;;;;;;;10543240;28;20213;-94
2022/12/29 23:09:14;;;;;;;0.38;0.28;;;;;;;;;;10537699;28;20205;-91
2022/12/29 23:14:16;;;;;;;3.55;0.30;;;;;;;;;;10543998;28;20213;-92
2022/12/29 23:19:17;;;;;;;0.63;0.30;;;;;;;;;;10546027;28;20273;-90
2022/12/29 23:24:18;;;;;;;2.58;0.40;;;;;;;;;;10539386;28;20246;-92
2022/12/29 23:29:19;;;;;;;3.20;0.38;;;;;;;;;;10516932;28;20268;-95
2022/12/29 23:34:21;;;;;;;2.83;0.30;;;;;;;;;;10522274;28;20229;-93
2022/12/29 23:39:23;;;;;;;0.63;0.40;;;;;;;;;;10542248;28;20221;-92
2022/12/29 23:44:24;;;;;;;0.40;0.30;;;;;;;;;;10543695;28;20281;-94
2022/12/29 23:49:25;;;;;;;0.82;0.30;;;;;;;;;;10534310;28;20225;-94
2022/12/29 23:54:26;;;;;;;1.38;0.30;;;;;;;;;;10550008;28;20242;-95
2022/12/29 23:59:27;;;;;;;2.65;0.70;;;;;;;;;;10514073;28;20236;-95
